createdAt,value
2023-03-26T00:01:47.224Z,1.88
2023-03-26T00:04:13.873Z,1.80
2023-03-26T00:06:42.810Z,1.92
2023-03-26T00:09:13.513Z,1.58
2023-03-26T00:11:40.548Z,1.20
2023-03-26T00:14:07.167Z,1.95
2023-03-26T00:16:33.896Z,1.58
2023-03-26T00:19:01.800Z,1.95
2023-03-26T00:21:30.396Z,1.92
2023-03-26T00:24:00.109Z,2.40
2023-03-26T00:26:29.667Z,2.00
2023-03-26T00:28:56.419Z,1.67
2023-03-26T00:31:25.975Z,1.73
2023-03-26T00:33:58.359Z,2.03
2023-03-26T00:36:27.477Z,1.80
2023-03-26T00:38:54.822Z,1.55
2023-03-26T00:41:25.516Z,1.98
2023-03-26T00:43:57.468Z,1.42
2023-03-26T00:46:25.796Z,1.52
2023-03-26T00:48:52.587Z,1.30
2023-03-26T00:51:24.163Z,1.83
2023-03-26T00:53:50.810Z,1.10
2023-03-26T00:56:20.313Z,1.70
2023-03-26T00:58:50.177Z,1.00
2023-03-26T01:01:27.308Z,1.53
2023-03-26T01:04:08.631Z,1.20
2023-03-26T01:06:42.321Z,1.17
2023-03-26T01:09:18.779Z,1.20
2023-03-26T01:11:46.296Z,1.17
2023-03-26T01:14:25.071Z,1.50
2023-03-26T01:16:54.881Z,0.90
2023-03-26T01:19:22.871Z,1.40
2023-03-26T01:21:49.458Z,1.15
2023-03-26T01:24:16.259Z,1.30
2023-03-26T01:26:59.033Z,1.00
2023-03-26T01:29:25.671Z,0.90
2023-03-26T01:32:01.120Z,0.85
2023-03-26T01:34:47.103Z,0.80
2023-03-26T01:37:22.360Z,0.88
2023-03-26T01:40:12.308Z,0.80
2023-03-26T01:42:48.093Z,0.70
2023-03-26T01:45:26.480Z,1.02
2023-03-26T01:47:56.223Z,0.70
2023-03-26T01:50:22.832Z,0.82
2023-03-26T01:52:51.910Z,1.00
2023-03-26T01:55:18.832Z,0.77
2023-03-26T01:58:12.629Z,0.70
2023-03-26T02:01:14.153Z,0.60
2023-03-26T02:04:11.345Z,0.57
2023-03-26T02:06:44.669Z,0.77
2023-03-26T02:09:17.571Z,0.73
2023-03-26T02:11:47.762Z,0.40
2023-03-26T02:14:15.427Z,0.40
2023-03-26T02:16:47.092Z,0.50
2023-03-26T02:19:21.948Z,0.53
2023-03-26T02:21:51.435Z,0.43
2023-03-26T02:24:21.043Z,0.52
2023-03-26T02:26:47.681Z,0.50
2023-03-26T02:29:19.471Z,0.30
2023-03-26T02:31:51.386Z,0.50
2023-03-26T02:34:18.024Z,0.68
2023-03-26T02:36:44.689Z,0.50
2023-03-26T02:39:12.021Z,0.43
2023-03-26T02:41:41.392Z,0.47
2023-03-26T02:44:10.304Z,0.30
2023-03-26T02:46:36.891Z,0.38
2023-03-26T02:49:05.750Z,0.30
2023-03-26T02:51:35.042Z,0.30
2023-03-26T02:54:02.160Z,0.28
2023-03-26T02:56:29.182Z,0.30
2023-03-26T02:58:55.994Z,0.35
2023-03-26T03:01:25.258Z,0.30
2023-03-26T03:03:51.956Z,0.43
2023-03-26T03:06:21.334Z,0.30
2023-03-26T03:08:50.426Z,0.30
2023-03-26T03:11:24.978Z,0.30
2023-03-26T03:13:55.595Z,0.20
2023-03-26T03:16:24.438Z,0.40
2023-03-26T03:18:54.781Z,0.40
2023-03-26T03:21:21.992Z,0.30
2023-03-26T03:23:48.871Z,0.32
2023-03-26T03:26:23.204Z,0.98
2023-03-26T03:28:52.137Z,0.20
2023-03-26T03:31:21.834Z,0.30
2023-03-26T03:33:48.689Z,0.20
2023-03-26T03:36:23.772Z,0.30
2023-03-26T03:38:51.235Z,0.40
2023-03-26T03:41:18.773Z,0.30
2023-03-26T03:43:47.699Z,0.20
2023-03-26T03:46:16.490Z,0.30
2023-03-26T03:48:49.714Z,0.20
2023-03-26T03:51:20.443Z,0.35
2023-03-26T03:53:47.576Z,0.28
2023-03-26T03:56:14.876Z,0.20
2023-03-26T03:58:45.629Z,0.30
2023-03-26T04:01:13.554Z,0.28
2023-03-26T04:03:40.462Z,0.30
2023-03-26T04:06:11.142Z,0.30
2023-03-26T04:08:37.842Z,0.30
2023-03-26T04:11:06.952Z,0.20
2023-03-26T04:13:33.705Z,0.30
2023-03-26T04:16:02.591Z,0.30
2023-03-26T04:18:30.378Z,0.30
2023-03-26T04:20:57.037Z,0.30
2023-03-26T04:23:24.557Z,0.20
2023-03-26T04:25:55.807Z,0.20
2023-03-26T04:28:28.603Z,0.20
2023-03-26T04:30:57.229Z,0.30
2023-03-26T04:33:35.329Z,0.20
2023-03-26T04:36:03.258Z,0.17
2023-03-26T04:38:41.404Z,0.20
2023-03-26T04:41:13.668Z,0.20
2023-03-26T04:43:47.586Z,0.35
2023-03-26T04:46:14.675Z,0.20
2023-03-26T04:48:43.560Z,0.20
2023-03-26T04:51:18.100Z,0.20
2023-03-26T04:53:58.316Z,0.20
2023-03-26T04:56:40.501Z,0.30
2023-03-26T04:59:13.777Z,0.17
2023-03-26T05:01:41.994Z,0.20
2023-03-26T05:04:08.651Z,0.20
2023-03-26T05:06:38.101Z,0.25
2023-03-26T05:09:04.716Z,0.20
2023-03-26T05:11:31.528Z,0.20
2023-03-26T05:13:58.176Z,0.23
2023-03-26T05:16:25.147Z,0.22
2023-03-26T05:18:51.885Z,0.20
2023-03-26T05:21:18.500Z,0.20
2023-03-26T05:23:45.455Z,0.40
2023-03-26T05:26:14.842Z,0.30
2023-03-26T05:28:41.582Z,0.20
2023-03-26T05:31:11.776Z,0.20
2023-03-26T05:33:38.546Z,0.20
2023-03-26T05:36:07.294Z,0.20
2023-03-26T05:38:37.141Z,0.20
2023-03-26T05:41:06.980Z,0.30
2023-03-26T05:43:34.208Z,0.30
2023-03-26T05:46:03.876Z,0.20
2023-03-26T05:48:30.587Z,0.20
2023-03-26T05:51:00.030Z,0.20
2023-03-26T05:53:27.450Z,0.30
2023-03-26T05:56:00.879Z,0.20
2023-03-26T05:58:35.602Z,0.20
2023-03-26T06:01:08.517Z,0.30
2023-03-26T06:03:37.712Z,0.20
2023-03-26T06:06:07.824Z,0.20
2023-03-26T06:08:34.485Z,0.20
2023-03-26T06:11:05.676Z,0.30
2023-03-26T06:13:32.248Z,0.30
2023-03-26T06:15:58.980Z,0.20
2023-03-26T06:18:26.584Z,0.20
2023-03-26T06:20:53.386Z,0.20
2023-03-26T06:23:23.237Z,0.20
2023-03-26T06:25:49.988Z,0.20
2023-03-26T06:28:19.262Z,0.20
2023-03-26T06:30:45.896Z,0.40
2023-03-26T06:33:12.512Z,0.40
2023-03-26T06:35:42.929Z,0.20
2023-03-26T06:38:13.528Z,0.20
2023-03-26T06:40:42.622Z,0.30
2023-03-26T06:43:11.167Z,0.28
2023-03-26T06:45:42.617Z,0.20
2023-03-26T06:48:09.244Z,0.30
2023-03-26T06:50:38.087Z,0.30
2023-03-26T06:53:06.891Z,0.30
2023-03-26T06:55:35.966Z,0.20
2023-03-26T06:58:02.556Z,0.32
2023-03-26T07:00:29.344Z,0.30
2023-03-26T07:02:55.954Z,0.20
2023-03-26T07:05:22.849Z,0.20
2023-03-26T07:07:51.667Z,0.30
2023-03-26T07:10:18.248Z,0.20
2023-03-26T07:12:47.418Z,0.20
2023-03-26T07:15:16.364Z,0.20
2023-03-26T07:17:43.060Z,0.30
2023-03-26T07:20:10.346Z,0.30
2023-03-26T07:22:37.244Z,0.20
2023-03-26T07:25:04.504Z,0.22
2023-03-26T07:27:37.564Z,0.20
2023-03-26T07:30:29.754Z,0.20
2023-03-26T07:33:01.771Z,0.20
2023-03-26T07:35:50.948Z,0.20
2023-03-26T07:38:20.732Z,0.20
2023-03-26T07:41:11.358Z,0.20
2023-03-26T07:43:58.316Z,0.40
2023-03-26T07:46:31.828Z,0.20
2023-03-26T07:49:01.806Z,0.20
2023-03-26T07:51:29.226Z,0.20
2023-03-26T07:53:56.396Z,0.30
2023-03-26T07:56:41.312Z,0.20
2023-03-26T07:59:29.019Z,0.28
2023-03-26T08:02:00.903Z,0.30
2023-03-26T08:05:03.509Z,1.15
2023-03-26T08:07:39.639Z,0.30
2023-03-26T08:10:20.717Z,0.30
2023-03-26T08:12:59.891Z,0.20
2023-03-26T08:15:32.834Z,0.40
2023-03-26T08:18:18.216Z,0.40
2023-03-26T08:20:49.023Z,0.30
2023-03-26T08:23:30.893Z,0.47
2023-03-26T08:26:06.613Z,0.20
2023-03-26T08:28:50.736Z,0.20
2023-03-26T08:31:19.501Z,0.30
2023-03-26T08:33:50.966Z,0.20
2023-03-26T08:36:17.527Z,0.30
2023-03-26T08:38:45.740Z,0.20
2023-03-26T08:41:17.131Z,0.20
2023-03-26T08:44:02.534Z,0.20
2023-03-26T08:46:46.439Z,0.30
2023-03-26T08:49:46.984Z,0.20
2023-03-26T08:52:51.111Z,0.20
2023-03-26T08:55:31.918Z,0.20
2023-03-26T08:58:29.579Z,0.20
2023-03-26T09:01:14.809Z,0.47
2023-03-26T09:04:26.332Z,0.20
2023-03-26T09:07:30.315Z,0.20
2023-03-26T09:10:09.452Z,0.20
2023-03-26T09:12:50.977Z,0.30
2023-03-26T09:15:33.942Z,0.20
2023-03-26T09:18:24.122Z,0.30
2023-03-26T09:21:22.432Z,0.20
2023-03-26T09:24:12.060Z,0.22
2023-03-26T09:27:03.482Z,0.20
2023-03-26T09:29:39.046Z,0.20
2023-03-26T09:32:21.303Z,0.20
2023-03-26T09:35:03.494Z,0.20
2023-03-26T09:37:56.902Z,0.32
2023-03-26T09:40:29.514Z,0.20
2023-03-26T09:43:21.339Z,0.20
2023-03-26T09:45:53.185Z,0.20
2023-03-26T09:48:34.597Z,0.20
2023-03-26T09:51:21.273Z,0.20
2023-03-26T09:54:12.479Z,0.20
2023-03-26T09:56:48.259Z,0.30
2023-03-26T09:59:43.287Z,0.10
2023-03-26T10:02:47.801Z,0.20
2023-03-26T10:05:34.380Z,0.20
2023-03-26T10:08:23.494Z,0.20
2023-03-26T10:11:19.176Z,0.20
2023-03-26T10:14:21.559Z,0.23
2023-03-26T10:16:57.147Z,0.20
2023-03-26T10:19:36.015Z,0.20
2023-03-26T10:22:37.681Z,0.20
2023-03-26T10:25:28.993Z,0.20
2023-03-26T10:28:04.895Z,0.20
2023-03-26T10:30:56.731Z,0.22
2023-03-26T10:33:52.664Z,0.30
2023-03-26T10:36:29.706Z,0.20
2023-03-26T10:39:36.354Z,0.20
2023-03-26T10:42:20.398Z,0.20
2023-03-26T10:45:20.844Z,0.10
2023-03-26T10:48:09.208Z,0.25
2023-03-26T10:51:04.659Z,0.20
2023-03-26T10:53:38.254Z,0.20
2023-03-26T10:56:28.528Z,0.40
2023-03-26T10:58:56.977Z,0.20
2023-03-26T11:01:38.270Z,0.25
2023-03-26T11:04:52.565Z,0.30
2023-03-26T11:07:41.462Z,0.30
2023-03-26T11:10:18.879Z,0.30
2023-03-26T11:13:00.727Z,0.30
2023-03-26T11:15:32.876Z,0.30
2023-03-26T11:18:17.902Z,0.40
2023-03-26T11:21:22.770Z,0.30
2023-03-26T11:24:09.530Z,0.37
2023-03-26T11:26:41.898Z,0.50
2023-03-26T11:29:32.298Z,0.40
2023-03-26T11:32:17.465Z,0.40
2023-03-26T11:35:40.590Z,0.20
2023-03-26T11:38:42.044Z,0.40
2023-03-26T11:41:31.221Z,0.30
2023-03-26T11:44:04.096Z,0.30
2023-03-26T11:46:33.625Z,0.40
2023-03-26T11:49:03.522Z,0.40
2023-03-26T11:51:37.878Z,0.40
2023-03-26T11:54:07.883Z,0.28
2023-03-26T11:57:04.819Z,0.35
2023-03-26T11:59:49.126Z,0.40
2023-03-26T12:02:38.668Z,0.30
2023-03-26T12:05:31.503Z,0.20
2023-03-26T12:08:00.785Z,0.30
2023-03-26T12:10:29.633Z,0.30
2023-03-26T12:13:02.271Z,0.30
2023-03-26T12:15:31.660Z,0.30
2023-03-26T12:18:21.129Z,0.20
2023-03-26T12:20:48.260Z,0.82
2023-03-26T12:23:38.734Z,0.35
2023-03-26T12:26:16.309Z,0.35
2023-03-26T12:28:47.914Z,0.30
2023-03-26T12:31:18.362Z,0.30
2023-03-26T12:33:53.381Z,0.40
2023-03-26T12:36:26.691Z,0.30
2023-03-26T12:39:43.066Z,0.30
2023-03-26T12:42:25.728Z,0.20
2023-03-26T12:44:59.310Z,0.37
2023-03-26T12:47:57.670Z,0.30
2023-03-26T12:50:34.027Z,0.20
2023-03-26T12:53:41.228Z,0.30
2023-03-26T12:56:21.559Z,0.50
2023-03-26T12:59:11.717Z,0.20
2023-03-26T13:01:57.906Z,0.32
2023-03-26T13:04:58.485Z,0.43
2023-03-26T13:08:00.418Z,0.30
2023-03-26T13:10:51.163Z,0.40
2023-03-26T13:13:42.506Z,0.30
2023-03-26T13:16:27.619Z,0.38
2023-03-26T13:19:04.820Z,0.40
2023-03-26T13:21:51.782Z,0.30
2023-03-26T13:24:49.274Z,0.40
2023-03-26T13:27:28.490Z,0.40
2023-03-26T13:29:58.609Z,0.47
2023-03-26T13:32:44.435Z,0.60
2023-03-26T13:35:24.423Z,0.30
2023-03-26T13:38:11.884Z,0.40
2023-03-26T13:40:59.081Z,0.23
2023-03-26T13:43:32.761Z,0.30
2023-03-26T13:46:08.720Z,0.30
2023-03-26T13:48:56.696Z,0.30
2023-03-26T13:51:54.907Z,0.40
2023-03-26T13:54:31.261Z,0.30
2023-03-26T13:57:09.520Z,0.30
2023-03-26T13:59:46.708Z,0.40
2023-03-26T14:02:31.645Z,0.40
2023-03-26T14:05:08.087Z,0.40
2023-03-26T14:07:42.037Z,0.47
2023-03-26T14:10:17.060Z,0.40
2023-03-26T14:12:49.453Z,0.32
2023-03-26T14:15:40.572Z,0.25
2023-03-26T14:18:37.973Z,0.30
2023-03-26T14:21:34.973Z,0.30
2023-03-26T14:24:30.865Z,0.40
2023-03-26T14:27:30.694Z,0.40
2023-03-26T14:30:20.350Z,0.60
2023-03-26T14:32:54.213Z,0.40
2023-03-26T14:35:21.042Z,0.50
2023-03-26T14:37:57.476Z,0.50
2023-03-26T14:40:58.556Z,0.50
2023-03-26T14:43:47.242Z,0.50
2023-03-26T14:46:34.844Z,0.60
2023-03-26T14:49:22.203Z,0.60
2023-03-26T14:52:07.602Z,0.50
2023-03-26T14:54:40.965Z,0.65
2023-03-26T14:57:33.178Z,0.70
2023-03-26T15:00:22.382Z,0.80
2023-03-26T15:03:08.112Z,1.00
2023-03-26T15:05:47.039Z,0.77
2023-03-26T15:08:48.672Z,1.00
2023-03-26T15:11:34.900Z,0.98
2023-03-26T15:14:26.874Z,1.08
2023-03-26T15:16:59.404Z,1.07
2023-03-26T15:19:44.193Z,1.60
2023-03-26T15:22:38.379Z,1.77
2023-03-26T15:25:39.933Z,2.45
2023-03-26T15:28:31.844Z,1.92
2023-03-26T15:31:21.210Z,3.30
2023-03-26T15:34:09.495Z,2.53
2023-03-26T15:37:06.795Z,2.08
2023-03-26T15:40:09.728Z,2.88
2023-03-26T15:42:45.747Z,2.88
2023-03-26T15:45:24.052Z,2.27
2023-03-26T15:48:27.544Z,2.80
2023-03-26T15:51:16.737Z,3.00
2023-03-26T15:54:05.266Z,2.63
2023-03-26T15:56:41.044Z,2.50
2023-03-26T15:59:12.059Z,2.63
2023-03-26T16:02:04.815Z,2.53
2023-03-26T16:04:54.195Z,2.30
2023-03-26T16:08:02.866Z,2.47
2023-03-26T16:10:44.704Z,2.05
2023-03-26T16:13:20.207Z,2.20
2023-03-26T16:15:56.346Z,2.55
2023-03-26T16:18:29.092Z,2.10
2023-03-26T16:20:55.991Z,2.83
2023-03-26T16:23:47.781Z,4.60
2023-03-26T16:26:25.986Z,6.77
2023-03-26T16:28:55.188Z,11.60
2023-03-26T16:31:36.902Z,24.13
2023-03-26T16:34:05.350Z,23.65
2023-03-26T16:36:43.002Z,21.75
2023-03-26T16:39:12.464Z,21.90
2023-03-26T16:41:38.970Z,20.05
2023-03-26T16:44:11.737Z,18.70
2023-03-26T16:47:12.356Z,17.10
2023-03-26T16:50:08.590Z,15.70
2023-03-26T16:53:15.559Z,16.33
2023-03-26T16:56:05.454Z,13.50
2023-03-26T16:58:43.280Z,10.50
2023-03-26T17:01:28.403Z,9.90
2023-03-26T17:04:07.205Z,14.77
2023-03-26T17:06:47.507Z,12.20
2023-03-26T17:09:51.857Z,14.65
2023-03-26T17:12:30.342Z,12.00
2023-03-26T17:14:59.636Z,10.73
2023-03-26T17:17:36.865Z,11.35
2023-03-26T17:20:12.352Z,9.30
2023-03-26T17:23:20.423Z,10.00
2023-03-26T17:26:27.034Z,9.65
2023-03-26T17:29:23.441Z,8.20
2023-03-26T17:32:09.305Z,7.57
2023-03-26T17:34:39.141Z,7.90
2023-03-26T17:37:13.239Z,7.45
2023-03-26T17:39:39.833Z,6.68
2023-03-26T17:42:26.530Z,6.60
2023-03-26T17:45:01.272Z,5.80
2023-03-26T17:47:51.743Z,5.90
2023-03-26T17:50:25.408Z,5.65
2023-03-26T17:53:04.958Z,5.03
2023-03-26T17:55:36.538Z,5.15
2023-03-26T17:58:20.791Z,4.55
2023-03-26T18:00:56.822Z,5.23
2023-03-26T18:03:35.407Z,5.30
2023-03-26T18:06:14.403Z,4.85
2023-03-26T18:08:41.389Z,5.15
2023-03-26T18:11:32.311Z,4.63
2023-03-26T18:14:49.382Z,4.67
2023-03-26T18:17:16.475Z,5.03
2023-03-26T18:19:52.576Z,4.40
2023-03-26T18:22:28.473Z,4.35
2023-03-26T18:24:59.836Z,5.10
2023-03-26T18:27:36.099Z,5.53
2023-03-26T18:30:14.754Z,5.88
2023-03-26T18:33:00.123Z,7.28
2023-03-26T18:35:36.369Z,6.80
2023-03-26T18:38:03.723Z,4.95
2023-03-26T18:40:41.677Z,4.67
2023-03-26T18:43:32.293Z,4.18
2023-03-26T18:46:03.519Z,3.75
2023-03-26T18:48:30.342Z,3.67
2023-03-26T18:51:05.212Z,3.50
2023-03-26T18:53:52.117Z,3.13
2023-03-26T18:56:28.628Z,3.28
2023-03-26T18:59:00.674Z,2.90
2023-03-26T19:01:31.957Z,3.42
2023-03-26T19:04:04.049Z,3.08
2023-03-26T19:06:36.062Z,2.77
2023-03-26T19:09:13.535Z,2.80
2023-03-26T19:11:51.590Z,2.50
2023-03-26T19:14:20.235Z,2.38
2023-03-26T19:16:56.445Z,2.17
2023-03-26T19:19:28.364Z,2.20
2023-03-26T19:21:58.412Z,2.13
2023-03-26T19:24:26.726Z,2.20
2023-03-26T19:26:53.402Z,2.38
2023-03-26T19:29:41.086Z,2.30
2023-03-26T19:32:32.454Z,2.20
2023-03-26T19:35:00.197Z,2.00
2023-03-26T19:37:32.444Z,2.20
2023-03-26T19:40:14.337Z,2.00
2023-03-26T19:42:45.090Z,2.40
2023-03-26T19:45:18.944Z,2.37
2023-03-26T19:48:03.672Z,2.17
2023-03-26T19:50:43.214Z,2.63
2023-03-26T19:53:17.688Z,2.17
2023-03-26T19:56:05.941Z,2.40
2023-03-26T19:58:33.027Z,2.20
2023-03-26T20:01:04.116Z,2.00
2023-03-26T20:03:39.138Z,1.98
2023-03-26T20:06:09.073Z,2.22
2023-03-26T20:08:36.004Z,1.88
2023-03-26T20:11:02.738Z,2.40
2023-03-26T20:13:31.736Z,2.15
2023-03-26T20:16:05.211Z,1.83
2023-03-26T20:18:35.683Z,1.95
2023-03-26T20:21:08.754Z,1.90
2023-03-26T20:23:35.331Z,1.90
2023-03-26T20:26:06.431Z,1.90
2023-03-26T20:28:38.853Z,2.00
2023-03-26T20:31:22.529Z,1.83
2023-03-26T20:33:52.611Z,2.13
2023-03-26T20:36:33.648Z,2.40
2023-03-26T20:39:06.226Z,2.75
2023-03-26T20:41:34.542Z,2.13
2023-03-26T20:44:03.722Z,1.67
2023-03-26T20:46:31.767Z,1.70
2023-03-26T20:48:59.851Z,1.70
2023-03-26T20:51:28.708Z,2.30
2023-03-26T20:53:55.875Z,1.77
2023-03-26T20:56:22.762Z,1.83
2023-03-26T20:58:54.810Z,2.00
2023-03-26T21:01:29.603Z,1.53
2023-03-26T21:03:57.030Z,1.77
2023-03-26T21:06:23.710Z,1.60
2023-03-26T21:08:50.779Z,1.95
2023-03-26T21:11:26.850Z,1.70
2023-03-26T21:14:03.724Z,1.60
2023-03-26T21:16:30.702Z,1.85
2023-03-26T21:19:03.049Z,1.85
2023-03-26T21:21:47.915Z,1.67
2023-03-26T21:24:42.964Z,1.70
2023-03-26T21:27:33.823Z,1.70
2023-03-26T21:30:06.215Z,1.48
2023-03-26T21:32:33.249Z,1.42
2023-03-26T21:35:03.465Z,1.70
2023-03-26T21:37:30.347Z,1.40
2023-03-26T21:39:57.347Z,1.43
2023-03-26T21:42:29.447Z,1.70
2023-03-26T21:44:56.700Z,1.52
2023-03-26T21:47:23.472Z,1.48
2023-03-26T21:49:50.947Z,1.20
2023-03-26T21:52:19.974Z,1.37
2023-03-26T21:54:46.824Z,1.35
2023-03-26T21:57:29.113Z,1.40
2023-03-26T22:00:14.329Z,1.40
2023-03-26T22:02:56.324Z,1.40
2023-03-26T22:05:32.517Z,1.57
2023-03-26T22:08:01.808Z,1.65
2023-03-26T22:10:28.799Z,1.60
2023-03-26T22:12:55.497Z,1.10
2023-03-26T22:15:22.246Z,1.20
2023-03-26T22:17:58.068Z,1.33
2023-03-26T22:20:25.399Z,1.00
2023-03-26T22:22:53.387Z,1.20
2023-03-26T22:25:21.903Z,1.10
2023-03-26T22:27:50.694Z,1.10
2023-03-26T22:30:20.912Z,1.20
2023-03-26T22:32:50.295Z,0.80
2023-03-26T22:35:19.280Z,1.20
2023-03-26T22:37:46.139Z,1.58
2023-03-26T22:40:16.175Z,0.98
2023-03-26T22:42:45.709Z,1.60
2023-03-26T22:45:12.691Z,0.75
2023-03-26T22:47:41.674Z,1.10
2023-03-26T22:50:08.998Z,1.00
2023-03-26T22:52:40.724Z,1.00
2023-03-26T22:55:08.292Z,1.20
2023-03-26T22:57:34.990Z,1.00
2023-03-26T23:00:16.478Z,1.77
2023-03-26T23:02:46.974Z,0.80
2023-03-26T23:05:17.424Z,0.65
2023-03-26T23:07:45.171Z,0.80
2023-03-26T23:10:15.040Z,1.00
2023-03-26T23:12:43.877Z,1.02
2023-03-26T23:15:14.146Z,1.00
2023-03-26T23:17:40.765Z,1.13
2023-03-26T23:20:13.574Z,0.90
2023-03-26T23:22:41.171Z,0.90
2023-03-26T23:25:08.179Z,0.88
2023-03-26T23:27:35.509Z,0.80
2023-03-26T23:30:02.249Z,0.98
2023-03-26T23:32:28.880Z,1.00
2023-03-26T23:34:58.327Z,0.70
2023-03-26T23:37:25.015Z,0.70
2023-03-26T23:39:52.460Z,0.77
2023-03-26T23:42:28.671Z,0.70
2023-03-26T23:44:59.159Z,0.90
2023-03-26T23:47:34.323Z,0.93
2023-03-26T23:50:04.724Z,0.77
2023-03-26T23:52:31.784Z,0.80
2023-03-26T23:55:02.077Z,0.90
2023-03-26T23:57:29.091Z,1.10
2023-03-26T23:59:56.270Z,1.08
